Terminal Aerodrome Forecast
Issued by NWS Shreveport, LA

Home | Current Version | Previous Version | Text Only | Print | Product List | Glossary On
Versions: 1 2 3 4 5 6 7 8 9 10 11 12 13
329
FTUS44 KSHV 132342
TAFTYR
TAF
KTYR 132342Z 1400/1424 12010KT P6SM FEW045 BKN060
      TEMPO 1400/1404 BKN040
     FM140400 15012KT P6SM BKN040
     FM141000 17012KT P6SM OVC030
     FM141300 17010KT 5SM BR OVC015
     FM141600 18012G18KT P6SM OVC020=

USA.gov is the U.S. government's official web portal to all federal, state and local government web resources and services.